Current Conditions
Mostly Clear
Conditions



Pressure
1016.92 (hPa) - 30.03 (inHG)
Visibility

6.2 (miles) - 10.0 (km)
Temperature
16  °C
Temperature
3  °C
Dewpoint
42  %
 Humidity
Wind Speed
3  mph
3  kts
5  km/h
1.3  m/s
Wind Direction
N
45°
E
90°
135°
S
180°
225°
W
270°
315°
 30°

North North
East
Airport Data
EGVO
RAF Odiham
Metar :EGVO 201250Z 03003KT CAVOK 16/03 Q1017 NOSIG RMK BLU BLU
Tue 20th April 12:50 pm
Raw Metar Info
Raw METAR is the most common format in the world for the transmission of observational weather data. It is highly standardized through the International Civil Aviation Organization (ICAO), which allows it to be understood throughout most of the world.
API Info
Data Provided by
https://www.checkwx.com/weather/EGVO

Aviation Weather providing METAR, TAF, AIRMET, SIGMET and OUTLOOK Weather Reports
© Info
CSS/SVG/PHP scripts were developed by weather34.com for use in the weather34 template © 2015-2021

Guide Info provided by Metar-Wikipedia